Time;durP1;ratioP1;P1;durP2;ratioP2;P2;SDS_P1;SDS_P2;PMS_P1;PMS_P2;Temp;Humidity;BMP_temperature;BMP_pressure;BME280_temperature;BME280_humidity;BME280_pressure;Samples;Min_cycle;Max_cycle;Signal;HPM_P1;HPM_P2
2021/07/02 00:00:44;;;;;;;1.95;1.55;;;25.10;41.90;;;;;;5013152;28;20219;-46
2021/07/02 00:03:11;;;;;;;1.40;1.30;;;25.00;41.80;;;;;;5000154;28;20210;-46
2021/07/02 00:05:37;;;;;;;3.92;1.55;;;25.00;41.90;;;;;;4994548;28;20200;-53
2021/07/02 00:08:04;;;;;;;1.52;1.40;;;25.10;41.90;;;;;;4993174;28;20235;-46
2021/07/02 00:10:30;;;;;;;1.60;1.50;;;25.10;41.80;;;;;;4994153;28;20203;-45
2021/07/02 00:12:57;;;;;;;3.10;1.35;;;25.10;41.80;;;;;;4998879;28;20289;-49
2021/07/02 00:15:23;;;;;;;1.55;1.45;;;25.10;41.90;;;;;;4997490;28;20235;-44
2021/07/02 00:17:50;;;;;;;1.40;1.30;;;25.10;41.80;;;;;;5008200;28;20210;-42
2021/07/02 00:20:16;;;;;;;1.45;1.35;;;25.10;41.80;;;;;;4996435;28;20210;-46
2021/07/02 00:22:42;;;;;;;1.50;1.40;;;25.10;41.80;;;;;;4997896;28;20227;-47
2021/07/02 00:25:09;;;;;;;1.55;1.45;;;25.10;41.80;;;;;;4997131;28;20210;-42
2021/07/02 00:27:35;;;;;;;1.52;1.42;;;25.10;41.80;;;;;;4995219;28;20214;-48
2021/07/02 00:30:02;;;;;;;1.30;1.20;;;25.00;41.80;;;;;;4995998;28;20211;-49
2021/07/02 00:32:28;;;;;;;1.55;1.45;;;25.10;41.80;;;;;;4994420;28;20242;-56
2021/07/02 00:34:55;;;;;;;1.40;1.30;;;25.10;41.80;;;;;;4995062;28;20766;-49
2021/07/02 00:37:21;;;;;;;1.52;1.42;;;25.10;41.80;;;;;;4994318;28;20214;-48
2021/07/02 00:39:48;;;;;;;1.50;1.40;;;25.10;41.80;;;;;;4998214;28;20204;-47
2021/07/02 00:42:14;;;;;;;1.58;1.38;;;25.10;41.80;;;;;;4991328;28;20738;-46
2021/07/02 00:44:41;;;;;;;1.30;1.20;;;25.00;41.70;;;;;;5000328;28;20307;-47
2021/07/02 00:47:07;;;;;;;1.40;1.30;;;25.00;41.70;;;;;;4986072;28;20210;-45
2021/07/02 00:49:34;;;;;;;1.40;1.30;;;25.10;41.80;;;;;;5002503;28;20208;-47
2021/07/02 00:52:00;;;;;;;1.50;1.40;;;25.10;41.80;;;;;;4992491;28;20227;-47
2021/07/02 00:54:27;;;;;;;1.65;1.55;;;25.10;41.70;;;;;;4999222;28;20612;-51
2021/07/02 00:56:53;;;;;;;1.60;1.50;;;25.10;41.70;;;;;;4997434;28;20208;-42
2021/07/02 00:59:20;;;;;;;1.55;1.45;;;25.10;41.70;;;;;;4995415;28;20198;-46
2021/07/02 01:01:46;;;;;;;1.52;1.42;;;25.00;41.70;;;;;;5001123;28;20303;-43
2021/07/02 01:04:13;;;;;;;1.60;1.50;;;25.10;41.70;;;;;;4991229;28;20715;-41
2021/07/02 01:06:39;;;;;;;2.15;1.65;;;25.10;41.70;;;;;;5003100;28;20212;-41
2021/07/02 01:09:06;;;;;;;1.50;1.40;;;25.10;41.70;;;;;;5004526;28;20378;-48
2021/07/02 01:11:32;;;;;;;3.35;1.85;;;25.00;41.60;;;;;;4994627;28;20238;-46
2021/07/02 01:13:59;;;;;;;1.50;1.40;;;25.00;41.60;;;;;;4988136;28;20230;-44
2021/07/02 01:16:25;;;;;;;1.77;1.67;;;25.10;41.70;;;;;;4993782;28;20258;-42
2021/07/02 01:18:52;;;;;;;1.63;1.52;;;25.10;41.70;;;;;;5011747;28;20206;-41
2021/07/02 01:21:18;;;;;;;1.50;1.40;;;25.00;41.70;;;;;;5000728;28;20222;-43
2021/07/02 01:23:45;;;;;;;1.58;1.35;;;25.10;41.70;;;;;;4990849;28;20286;-46
2021/07/02 01:26:11;;;;;;;1.40;1.30;;;25.10;41.70;;;;;;5007313;28;20294;-42
2021/07/02 01:28:38;;;;;;;1.58;1.48;;;25.00;41.60;;;;;;5008701;28;20199;-41
2021/07/02 01:31:04;;;;;;;1.50;1.40;;;25.00;41.60;;;;;;5002250;28;20230;-44
2021/07/02 01:33:30;;;;;;;1.50;1.40;;;25.10;41.70;;;;;;4990983;28;20214;-44
2021/07/02 01:35:57;;;;;;;1.58;1.45;;;25.10;41.70;;;;;;5004227;28;20242;-45
2021/07/02 01:38:23;;;;;;;1.33;1.23;;;25.10;41.70;;;;;;5003948;28;20205;-45
2021/07/02 01:40:50;;;;;;;1.60;1.50;;;25.10;41.70;;;;;;5006010;28;20750;-41
2021/07/02 01:43:17;;;;;;;1.70;1.60;;;25.10;41.60;;;;;;4993289;28;20208;-45
2021/07/02 01:45:43;;;;;;;1.40;1.30;;;25.10;41.70;;;;;;4993325;28;20286;-41
2021/07/02 01:48:09;;;;;;;1.40;1.30;;;25.10;41.70;;;;;;4992277;28;20211;-48
2021/07/02 01:50:36;;;;;;;1.33;1.23;;;25.00;41.60;;;;;;4987860;28;20227;-51
2021/07/02 01:53:02;;;;;;;1.80;1.70;;;25.10;41.60;;;;;;4998426;28;20640;-56
2021/07/02 01:55:29;;;;;;;1.48;1.38;;;25.00;41.60;;;;;;4992983;28;20728;-45
2021/07/02 01:57:55;;;;;;;1.27;1.17;;;25.00;41.60;;;;;;4988425;28;20679;-45
2021/07/02 02:00:22;;;;;;;1.75;1.60;;;25.00;41.60;;;;;;5008325;28;20566;-49
2021/07/02 02:02:48;;;;;;;1.50;1.40;;;25.10;41.60;;;;;;5003244;28;20651;-50
2021/07/02 02:05:14;;;;;;;1.50;1.40;;;25.00;41.60;;;;;;4989091;28;20238;-45
2021/07/02 02:07:41;;;;;;;1.50;1.40;;;25.00;41.60;;;;;;5009132;28;20225;-52
2021/07/02 02:10:07;;;;;;;1.50;1.40;;;25.10;41.60;;;;;;5005871;28;20227;-44
2021/07/02 02:12:34;;;;;;;1.30;1.23;;;25.00;41.60;;;;;;4999502;28;20209;-47
2021/07/02 02:15:00;;;;;;;1.52;1.30;;;25.00;41.60;;;;;;5005368;28;20202;-45
2021/07/02 02:17:27;;;;;;;1.75;1.45;;;25.00;41.60;;;;;;5003308;28;20289;-45
2021/07/02 02:19:53;;;;;;;1.63;1.52;;;25.00;41.50;;;;;;5007981;28;20290;-47
2021/07/02 02:22:20;;;;;;;1.80;1.63;;;25.00;41.50;;;;;;4991729;28;20294;-45
2021/07/02 02:24:46;;;;;;;1.40;1.30;;;25.00;41.50;;;;;;4995351;28;20200;-45
2021/07/02 02:27:13;;;;;;;1.30;1.20;;;25.00;41.50;;;;;;4991580;28;20196;-46
2021/07/02 02:29:39;;;;;;;1.58;1.48;;;25.00;41.50;;;;;;4997767;28;20238;-42
2021/07/02 02:32:05;;;;;;;1.50;1.40;;;25.00;41.50;;;;;;4996763;28;20774;-43
2021/07/02 02:34:32;;;;;;;1.40;1.30;;;25.00;41.50;;;;;;4997532;28;20519;-42
2021/07/02 02:36:58;;;;;;;1.80;1.70;;;25.00;42.20;;;;;;4991981;28;20254;-50
2021/07/02 02:39:25;;;;;;;1.67;1.40;;;25.00;41.50;;;;;;4998085;28;20237;-49
2021/07/02 02:41:52;;;;;;;1.40;1.30;;;25.00;41.60;;;;;;4998021;28;20229;-41
2021/07/02 02:44:18;;;;;;;1.73;1.63;;;25.00;41.50;;;;;;5005000;28;20565;-50
2021/07/02 02:46:44;;;;;;;1.30;1.20;;;25.00;41.50;;;;;;4990459;28;20570;-41
2021/07/02 02:49:11;;;;;;;1.77;1.67;;;25.00;41.50;;;;;;4991315;28;20291;-44
2021/07/02 02:51:37;;;;;;;1.42;1.33;;;25.00;41.50;;;;;;4992817;28;20219;-45
2021/07/02 02:54:04;;;;;;;1.40;1.30;;;25.00;41.50;;;;;;4987059;28;20192;-46
2021/07/02 02:56:30;;;;;;;1.50;1.40;;;25.00;41.50;;;;;;4992038;28;20235;-44
2021/07/02 02:58:57;;;;;;;1.70;1.60;;;25.00;41.50;;;;;;4996827;28;20207;-47
2021/07/02 03:01:23;;;;;;;1.50;1.40;;;25.00;41.50;;;;;;4971062;28;20315;-49
2021/07/02 03:03:50;;;;;;;1.30;1.20;;;25.00;41.50;;;;;;4972487;28;20216;-43
2021/07/02 03:06:16;;;;;;;1.55;1.45;;;25.00;41.50;;;;;;4986920;28;20219;-41
2021/07/02 03:08:42;;;;;;;1.10;1.10;;;25.00;41.50;;;;;;4991575;28;20247;-41
2021/07/02 03:11:09;;;;;;;1.60;1.50;;;25.00;41.50;;;;;;4991481;28;20211;-44
2021/07/02 03:13:35;;;;;;;1.50;1.40;;;25.00;41.50;;;;;;4995556;28;20205;-43
2021/07/02 03:16:02;;;;;;;1.60;1.50;;;25.00;41.60;;;;;;4998484;28;20232;-41
2021/07/02 03:18:28;;;;;;;1.85;1.65;;;25.00;41.60;;;;;;5006292;28;20302;-43
2021/07/02 03:20:55;;;;;;;1.55;1.45;;;25.00;41.60;;;;;;5004954;28;20309;-45
2021/07/02 03:23:21;;;;;;;1.63;1.52;;;25.00;42.40;;;;;;4991340;28;20224;-43
2021/07/02 03:25:48;;;;;;;1.67;1.58;;;25.00;41.70;;;;;;4990219;28;20245;-49
2021/07/02 03:28:14;;;;;;;1.80;1.50;;;25.00;41.70;;;;;;5007681;28;20207;-42
2021/07/02 03:30:40;;;;;;;1.83;1.60;;;25.00;41.70;;;;;;4999074;28;20766;-41
2021/07/02 03:33:07;;;;;;;1.50;1.40;;;25.00;41.70;;;;;;5004075;28;20615;-41
2021/07/02 03:35:33;;;;;;;1.45;1.35;;;25.00;41.70;;;;;;5001987;28;20591;-42
2021/07/02 03:38:00;;;;;;;1.40;1.30;;;25.00;41.70;;;;;;4993544;28;20203;-41
2021/07/02 03:40:26;;;;;;;1.48;1.38;;;25.00;41.70;;;;;;4996509;28;20231;-42
2021/07/02 03:42:53;;;;;;;1.35;1.25;;;25.00;41.60;;;;;;5000703;28;20204;-45
2021/07/02 03:45:19;;;;;;;1.60;1.50;;;25.00;41.70;;;;;;4999464;28;20199;-42
2021/07/02 03:47:46;;;;;;;1.80;1.42;;;25.00;41.70;;;;;;4990710;28;20208;-42
2021/07/02 03:50:12;;;;;;;1.50;1.40;;;25.00;41.60;;;;;;4998182;28;20315;-41
2021/07/02 03:52:39;;;;;;;1.48;1.38;;;25.00;41.60;;;;;;4989766;28;20689;-42
2021/07/02 03:55:06;;;;;;;2.97;1.45;;;25.00;41.60;;;;;;4990248;28;20203;-41
2021/07/02 03:57:32;;;;;;;1.40;1.30;;;25.00;41.60;;;;;;5005343;28;20227;-41
2021/07/02 03:59:59;;;;;;;1.80;1.70;;;25.00;41.60;;;;;;4998574;28;20215;-42
2021/07/02 04:02:25;;;;;;;1.63;1.50;;;25.00;41.60;;;;;;5004720;28;20217;-42
2021/07/02 04:04:51;;;;;;;1.33;1.23;;;25.00;41.60;;;;;;5004465;28;20717;-42
2021/07/02 04:07:19;;;;;;;1.52;1.42;;;25.00;41.60;;;;;;5000981;28;20566;-42
2021/07/02 04:09:46;;;;;;;1.23;1.13;;;25.00;41.60;;;;;;5000801;28;20285;-43
2021/07/02 04:12:13;;;;;;;1.92;1.50;;;25.00;41.60;;;;;;5000622;28;20204;-42
2021/07/02 04:14:39;;;;;;;1.50;1.40;;;25.00;41.60;;;;;;4990016;28;20575;-44
2021/07/02 04:17:06;;;;;;;1.63;1.50;;;25.00;41.50;;;;;;4994216;28;20269;-48
2021/07/02 04:19:32;;;;;;;1.98;1.35;;;25.00;41.60;;;;;;4997340;28;20314;-47
2021/07/02 04:21:59;;;;;;;1.60;1.50;;;25.00;41.60;;;;;;4994495;28;20212;-42
2021/07/02 04:24:28;;;;;;;1.70;1.60;;;25.00;41.50;;;;;;4992532;28;20218;-45
2021/07/02 04:26:55;;;;;;;1.40;1.30;;;25.00;41.50;;;;;;4992935;28;20232;-42
2021/07/02 04:29:21;;;;;;;1.42;1.33;;;25.00;41.50;;;;;;5009624;28;20218;-48
2021/07/02 04:31:48;;;;;;;1.55;1.40;;;25.00;41.50;;;;;;4997083;28;20239;-45
2021/07/02 04:34:14;;;;;;;1.52;1.40;;;25.00;41.50;;;;;;5003016;28;20755;-41
2021/07/02 04:36:41;;;;;;;1.73;1.63;;;25.00;41.50;;;;;;4993679;28;20716;-45
2021/07/02 04:39:07;;;;;;;1.60;1.50;;;25.00;41.50;;;;;;5001784;28;20200;-49
2021/07/02 04:41:34;;;;;;;1.35;1.20;;;25.00;41.50;;;;;;4997020;28;20211;-42
2021/07/02 04:44:00;;;;;;;1.40;1.30;;;25.00;41.50;;;;;;5003304;28;20660;-41
2021/07/02 04:46:26;;;;;;;1.48;1.38;;;25.00;41.50;;;;;;5003845;28;20636;-49
2021/07/02 04:48:53;;;;;;;1.50;1.40;;;25.00;41.50;;;;;;5009001;28;20285;-44
2021/07/02 04:51:19;;;;;;;1.52;1.42;;;25.00;41.50;;;;;;4999039;28;20227;-42
2021/07/02 04:53:46;;;;;;;1.60;1.50;;;25.00;41.50;;;;;;5002129;28;20211;-46
2021/07/02 04:56:12;;;;;;;1.52;1.42;;;25.00;41.50;;;;;;5003447;28;20230;-44
2021/07/02 04:58:39;;;;;;;1.20;1.20;;;25.00;41.50;;;;;;5002539;28;20218;-44
2021/07/02 05:01:06;;;;;;;1.60;1.50;;;25.00;41.50;;;;;;4996280;28;20235;-41
2021/07/02 05:03:32;;;;;;;1.50;1.40;;;25.00;41.50;;;;;;4992875;28;20235;-46
2021/07/02 05:05:58;;;;;;;1.60;1.50;;;25.00;41.50;;;;;;4991198;28;20203;-48
2021/07/02 05:08:25;;;;;;;1.58;1.48;;;25.00;41.50;;;;;;5005867;28;20279;-44
2021/07/02 05:10:51;;;;;;;1.50;1.40;;;25.00;41.50;;;;;;5000042;28;20219;-48
2021/07/02 05:13:18;;;;;;;1.30;1.20;;;25.00;41.50;;;;;;4997658;28;20203;-42
2021/07/02 05:15:44;;;;;;;1.80;1.30;;;25.00;41.50;;;;;;4994244;28;20203;-42
2021/07/02 05:18:11;;;;;;;1.58;1.48;;;25.00;41.50;;;;;;5009020;28;20282;-42
2021/07/02 05:20:37;;;;;;;1.75;1.38;;;25.00;41.50;;;;;;4994420;28;20254;-46
2021/07/02 05:23:04;;;;;;;1.33;1.23;;;25.00;41.50;;;;;;5005965;28;20199;-47
2021/07/02 05:25:31;;;;;;;1.38;1.27;;;25.00;41.50;;;;;;4999915;28;20207;-42
2021/07/02 05:27:57;;;;;;;1.63;1.52;;;25.00;41.50;;;;;;4996470;28;20211;-43
2021/07/02 05:30:26;;;;;;;1.40;1.30;;;25.00;41.50;;;;;;4992250;28;20664;-48
2021/07/02 05:32:52;;;;;;;1.40;1.30;;;25.00;41.50;;;;;;4991606;28;20212;-45
2021/07/02 05:35:19;;;;;;;1.50;1.23;;;25.00;41.40;;;;;;5000172;28;20208;-45
2021/07/02 05:37:45;;;;;;;1.70;1.58;;;25.00;41.50;;;;;;4988010;28;20234;-45
2021/07/02 05:40:12;;;;;;;2.42;1.38;;;25.00;41.60;;;;;;4995865;28;20226;-47
2021/07/02 05:42:38;;;;;;;1.25;1.15;;;25.00;41.60;;;;;;4991590;28;20204;-41
2021/07/02 05:45:05;;;;;;;2.85;1.40;;;25.00;41.70;;;;;;4999643;28;20226;-42
2021/07/02 05:47:31;;;;;;;1.60;1.50;;;25.10;41.80;;;;;;4992933;28;20225;-41
2021/07/02 05:49:58;;;;;;;3.03;1.60;;;25.10;41.80;;;;;;4996104;28;20322;-46
2021/07/02 05:52:25;;;;;;;4.18;3.60;;;25.00;41.80;;;;;;4990994;28;20325;-41
2021/07/02 05:54:51;;;;;;;5.88;4.97;;;24.30;39.50;;;;;;4988498;28;20283;-47
2021/07/02 05:57:18;;;;;;;5.28;4.78;;;23.10;39.70;;;;;;5003890;28;20254;-45
2021/07/02 05:59:44;;;;;;;5.00;4.60;;;22.30;41.80;;;;;;4997930;28;20302;-49
2021/07/02 06:02:10;;;;;;;4.15;3.75;;;21.70;43.10;;;;;;4994213;28;20299;-42
2021/07/02 06:04:37;;;;;;;4.68;3.38;;;22.40;43.70;;;;;;4996020;28;20209;-46
2021/07/02 06:07:03;;;;;;;3.38;3.08;;;23.00;42.20;;;;;;5007940;28;20203;-47
2021/07/02 06:09:32;;;;;;;6.80;3.47;;;23.40;41.90;;;;;;4986861;28;20227;-44
2021/07/02 06:11:59;;;;;;;3.40;2.95;;;23.80;41.50;;;;;;4980618;28;20238;-41
2021/07/02 06:14:28;;;;;;;4.65;2.55;;;24.00;41.20;;;;;;4990085;28;20203;-46
2021/07/02 06:16:55;;;;;;;3.40;3.10;;;24.20;41.00;;;;;;4990659;28;20233;-50
2021/07/02 06:19:21;;;;;;;3.00;2.80;;;24.30;40.80;;;;;;4995451;28;20232;-46
2021/07/02 06:21:48;;;;;;;3.72;3.42;;;24.40;40.70;;;;;;5005595;28;20291;-48
2021/07/02 06:24:14;;;;;;;2.60;2.40;;;24.40;40.70;;;;;;4995136;28;20203;-47
2021/07/02 06:26:41;;;;;;;4.55;2.70;;;24.50;40.80;;;;;;4997500;28;20662;-47
2021/07/02 06:29:07;;;;;;;2.58;2.38;;;24.60;40.80;;;;;;4994275;28;20703;-47
2021/07/02 06:31:33;;;;;;;4.95;2.67;;;24.60;40.80;;;;;;5009203;28;20215;-47
2021/07/02 06:34:00;;;;;;;3.90;2.58;;;24.60;40.70;;;;;;4987533;28;20211;-46
2021/07/02 06:36:26;;;;;;;2.78;2.22;;;24.70;41.20;;;;;;5004537;28;20394;-42
2021/07/02 06:38:53;;;;;;;2.42;2.22;;;24.70;41.10;;;;;;4986437;28;20201;-43
2021/07/02 06:41:19;;;;;;;2.70;2.50;;;24.70;41.00;;;;;;4978916;28;20196;-43
2021/07/02 06:43:46;;;;;;;2.47;2.28;;;24.70;41.10;;;;;;4991763;28;20207;-47
2021/07/02 06:46:12;;;;;;;4.13;2.88;;;24.70;41.00;;;;;;5005068;28;20628;-46
2021/07/02 06:48:39;;;;;;;5.47;2.92;;;24.70;40.70;;;;;;5008904;28;20282;-43
2021/07/02 06:51:05;;;;;;;3.03;2.28;;;24.70;41.90;;;;;;5004161;28;20730;-41
2021/07/02 06:53:32;;;;;;;2.50;2.30;;;24.80;41.80;;;;;;4995049;28;20213;-46
2021/07/02 06:55:58;;;;;;;2.67;2.47;;;24.80;42.20;;;;;;4993260;28;20283;-41
2021/07/02 06:58:25;;;;;;;3.10;2.40;;;24.80;41.60;;;;;;5008571;28;20238;-41
2021/07/02 07:00:51;;;;;;;2.22;2.00;;;24.90;41.50;;;;;;4998753;28;20661;-47
2021/07/02 07:03:18;;;;;;;3.10;2.38;;;24.90;41.40;;;;;;4998991;28;20266;-46
2021/07/02 07:05:44;;;;;;;2.63;2.42;;;24.90;41.50;;;;;;5003149;28;20202;-45
2021/07/02 07:08:10;;;;;;;3.38;2.53;;;24.90;41.80;;;;;;5002250;28;20213;-47
2021/07/02 07:10:37;;;;;;;2.88;2.50;;;24.90;41.80;;;;;;4994009;28;20733;-42
2021/07/02 07:13:05;;;;;;;2.63;2.42;;;25.00;41.90;;;;;;4990255;28;20710;-43
2021/07/02 07:15:31;;;;;;;2.58;2.13;;;25.00;42.20;;;;;;4999331;28;20209;-45
2021/07/02 07:17:58;;;;;;;2.95;2.65;;;25.00;42.50;;;;;;5003886;28;20258;-47
2021/07/02 07:20:24;;;;;;;4.43;2.35;;;25.00;42.60;;;;;;5002443;28;20227;-46
2021/07/02 07:22:50;;;;;;;2.33;2.13;;;25.00;42.10;;;;;;5001923;28;20203;-43
2021/07/02 07:25:20;;;;;;;2.40;2.20;;;25.00;41.90;;;;;;4994851;28;20659;-44
2021/07/02 07:27:46;;;;;;;2.30;2.08;;;25.00;42.30;;;;;;4996151;28;20556;-43
2021/07/02 07:30:13;;;;;;;2.20;2.10;;;25.00;42.50;;;;;;4998466;28;20288;-49
2021/07/02 07:32:39;;;;;;;2.63;2.30;;;25.00;42.30;;;;;;5002370;28;20318;-44
2021/07/02 07:35:15;;;;;;;2.17;1.98;;;25.00;42.10;;;;;;4992734;28;20655;-44
2021/07/02 07:37:41;;;;;;;2.40;2.20;;;25.00;42.00;;;;;;4996564;28;20730;-52
2021/07/02 07:40:08;;;;;;;2.50;2.30;;;25.00;41.90;;;;;;4981342;28;20223;-49
2021/07/02 07:42:34;;;;;;;3.05;2.72;;;25.00;41.90;;;;;;5003492;28;20231;-44
2021/07/02 07:45:01;;;;;;;3.90;2.80;;;25.00;41.40;;;;;;4993827;28;20303;-47
2021/07/02 07:47:27;;;;;;;3.75;3.03;;;25.00;41.00;;;;;;4983180;28;20206;-48
2021/07/02 07:49:54;;;;;;;4.78;3.15;;;24.90;40.40;;;;;;5002732;28;20762;-45
2021/07/02 07:52:26;;;;;;;5.35;3.15;;;24.90;40.00;;;;;;5002550;28;20659;-44
2021/07/02 07:54:52;;;;;;;3.63;3.33;;;24.90;39.50;;;;;;4984431;28;20199;-48
2021/07/02 07:57:19;;;;;;;6.15;3.70;;;24.90;38.90;;;;;;4990938;28;20229;-45
2021/07/02 07:59:45;;;;;;;4.18;3.10;;;24.90;38.90;;;;;;4988700;28;20229;-44
2021/07/02 08:02:11;;;;;;;3.63;3.28;;;24.90;38.90;;;;;;5001493;28;20289;-50
2021/07/02 08:04:38;;;;;;;4.47;3.40;;;24.90;38.80;;;;;;5007601;28;20217;-46
2021/07/02 08:07:04;;;;;;;4.03;3.13;;;24.90;38.90;;;;;;5008256;28;20265;-45
2021/07/02 08:09:31;;;;;;;8.52;2.92;;;24.90;39.20;;;;;;4989229;28;20234;-44
2021/07/02 08:11:58;;;;;;;5.93;3.50;;;24.90;39.30;;;;;;4975221;28;20291;-43
2021/07/02 08:14:24;;;;;;;3.63;3.15;;;25.00;39.30;;;;;;4985310;28;20214;-43
2021/07/02 08:16:51;;;;;;;4.10;3.28;;;25.00;39.00;;;;;;4994562;28;20242;-45
2021/07/02 08:19:17;;;;;;;5.47;2.90;;;25.00;39.00;;;;;;4994714;28;20230;-44
2021/07/02 08:21:44;;;;;;;5.43;3.40;;;24.90;39.00;;;;;;4994768;28;20662;-44
2021/07/02 08:24:10;;;;;;;4.35;3.30;;;25.00;39.00;;;;;;4998426;28;20647;-48
2021/07/02 08:26:37;;;;;;;4.00;3.33;;;25.00;39.00;;;;;;4994509;28;20687;-53
2021/07/02 08:31:47;;;;;;;3.88;3.55;;;25.00;38.90;;;;;;5012412;28;20201;-46
2021/07/02 08:34:13;;;;;;;5.30;3.20;;;24.90;38.90;;;;;;5010061;28;20738;-41
2021/07/02 08:36:40;;;;;;;4.65;3.22;;;25.00;39.00;;;;;;4999879;28;20604;-43
2021/07/02 08:39:06;;;;;;;3.50;3.17;;;25.00;39.00;;;;;;4995629;28;20227;-41
2021/07/02 08:41:33;;;;;;;3.35;3.05;;;25.00;39.00;;;;;;4997254;28;20207;-46
2021/07/02 08:43:59;;;;;;;3.65;3.28;;;25.00;39.00;;;;;;5013494;28;20203;-51
2021/07/02 08:46:26;;;;;;;4.13;2.95;;;25.00;39.00;;;;;;4996824;28;20210;-44
2021/07/02 08:48:52;;;;;;;3.35;3.05;;;25.00;39.00;;;;;;5010081;28;20238;-42
2021/07/02 08:51:19;;;;;;;2.97;2.78;;;25.00;39.00;;;;;;5011456;28;20221;-42
2021/07/02 08:53:45;;;;;;;3.22;2.92;;;25.00;39.00;;;;;;4996297;28;20208;-42
2021/07/02 08:56:11;;;;;;;8.07;3.13;;;25.00;39.00;;;;;;4987400;28;20200;-43
2021/07/02 08:58:38;;;;;;;3.42;3.13;;;25.00;39.00;;;;;;4978969;28;21343;-46
2021/07/02 09:01:07;;;;;;;3.83;3.50;;;25.00;39.30;;;;;;4978168;28;20700;-43
2021/07/02 09:03:35;;;;;;;3.55;3.25;;;25.00;39.00;;;;;;4985771;28;20196;-42
2021/07/02 09:06:01;;;;;;;5.30;3.58;;;25.00;39.00;;;;;;4980406;28;20236;-46
2021/07/02 09:08:28;;;;;;;4.40;3.20;;;25.00;40.20;;;;;;4981575;28;20226;-42
2021/07/02 09:10:54;;;;;;;3.90;3.13;;;25.10;40.40;;;;;;4971910;28;20215;-40
2021/07/02 09:13:21;;;;;;;3.70;3.40;;;25.10;40.00;;;;;;4978311;28;20250;-43
2021/07/02 09:15:47;;;;;;;6.57;4.15;;;25.10;39.70;;;;;;4981742;28;20208;-41
2021/07/02 09:18:13;;;;;;;4.47;3.08;;;25.10;39.70;;;;;;4977556;28;20238;-41
2021/07/02 09:20:40;;;;;;;4.50;3.38;;;25.10;39.70;;;;;;4979985;28;20226;-42
2021/07/02 09:23:07;;;;;;;3.75;3.42;;;25.10;40.30;;;;;;4979991;28;22780;-42
2021/07/02 09:25:33;;;;;;;4.18;3.42;;;25.10;40.10;;;;;;4981959;28;20287;-42
2021/07/02 09:27:59;;;;;;;4.80;2.80;;;25.10;40.20;;;;;;4976639;28;20884;-48
2021/07/02 09:30:26;;;;;;;4.88;3.70;;;25.10;39.70;;;;;;4981451;28;20212;-42
2021/07/02 09:32:52;;;;;;;4.93;3.67;;;25.10;39.00;;;;;;4981104;28;20211;-41
2021/07/02 09:35:19;;;;;;;3.88;3.47;;;25.10;39.00;;;;;;4978794;28;20231;-44
2021/07/02 09:37:47;;;;;;;3.92;3.53;;;25.10;38.50;;;;;;4978080;28;20231;-42
2021/07/02 09:40:14;;;;;;;4.22;3.70;;;25.10;38.70;;;;;;4982214;28;20207;-42
2021/07/02 09:42:41;;;;;;;4.22;3.72;;;25.10;38.20;;;;;;4979122;28;20208;-44
2021/07/02 09:45:07;;;;;;;4.30;3.42;;;25.00;37.50;;;;;;4977059;28;20671;-43
2021/07/02 09:47:34;;;;;;;4.25;3.72;;;25.00;37.70;;;;;;4978578;28;20210;-41
2021/07/02 09:50:00;;;;;;;4.07;3.67;;;25.00;38.10;;;;;;4977458;28;20212;-42
2021/07/02 09:52:26;;;;;;;4.55;4.15;;;25.00;37.20;;;;;;4980845;28;20207;-41
2021/07/02 09:54:53;;;;;;;3.58;3.20;;;24.90;36.30;;;;;;4984377;28;20299;-42
2021/07/02 09:57:20;;;;;;;4.10;3.70;;;24.90;37.20;;;;;;4993334;28;20224;-44
2021/07/02 09:59:46;;;;;;;3.90;3.50;;;24.90;36.90;;;;;;4992683;28;20227;-42
2021/07/02 10:02:13;;;;;;;3.75;3.25;;;25.00;36.90;;;;;;4993926;28;20213;-42
2021/07/02 10:04:39;;;;;;;3.80;3.50;;;25.00;36.80;;;;;;4979645;28;20203;-48
2021/07/02 10:07:06;;;;;;;3.70;3.40;;;25.00;36.60;;;;;;4991431;28;20291;-43
2021/07/02 10:09:32;;;;;;;4.00;3.42;;;25.00;36.40;;;;;;4992768;28;20206;-45
2021/07/02 10:11:58;;;;;;;4.07;3.42;;;25.00;36.30;;;;;;4992511;28;20696;-46
2021/07/02 10:14:25;;;;;;;3.88;3.30;;;25.00;36.30;;;;;;4991146;28;21720;-42
2021/07/02 10:16:52;;;;;;;3.28;2.92;;;25.00;36.20;;;;;;4990865;28;20770;-47
2021/07/02 10:19:19;;;;;;;3.70;3.10;;;25.00;36.30;;;;;;4988029;28;20745;-43
2021/07/02 10:21:45;;;;;;;3.38;3.00;;;25.00;36.20;;;;;;4976697;28;20223;-44
2021/07/02 10:24:12;;;;;;;3.33;3.03;;;25.00;36.00;;;;;;4992012;28;20286;-43
2021/07/02 10:26:38;;;;;;;3.30;3.00;;;25.00;36.10;;;;;;4991709;28;20214;-51
2021/07/02 10:29:06;;;;;;;3.40;3.10;;;25.00;36.80;;;;;;4985530;28;20208;-50
2021/07/02 10:31:32;;;;;;;4.22;3.40;;;25.00;36.10;;;;;;4983828;28;20216;-45
2021/07/02 10:33:58;;;;;;;4.20;3.25;;;24.80;35.40;;;;;;4990991;28;20204;-43
2021/07/02 10:36:25;;;;;;;3.22;3.03;;;24.90;35.70;;;;;;4989366;28;20747;-43
2021/07/02 10:38:51;;;;;;;3.20;2.97;;;24.90;35.80;;;;;;4992399;28;20232;-44
2021/07/02 10:41:18;;;;;;;3.08;2.88;;;25.00;35.70;;;;;;4989424;28;20210;-46
2021/07/02 10:43:44;;;;;;;3.38;2.70;;;25.00;35.20;;;;;;4991298;28;20216;-42
2021/07/02 10:46:11;;;;;;;3.65;2.78;;;25.00;35.10;;;;;;4997183;28;20627;-48
2021/07/02 10:48:37;;;;;;;2.97;2.78;;;25.00;34.80;;;;;;4992229;28;20230;-41
2021/07/02 10:51:04;;;;;;;2.83;2.63;;;25.00;35.20;;;;;;4991588;28;20258;-45
2021/07/02 10:53:30;;;;;;;3.35;2.85;;;25.00;34.90;;;;;;4991085;28;20196;-45
2021/07/02 10:55:57;;;;;;;3.15;2.85;;;25.00;34.70;;;;;;4995027;28;20604;-50
2021/07/02 10:58:23;;;;;;;3.95;2.90;;;25.00;34.70;;;;;;5008375;28;20286;-46
2021/07/02 11:00:50;;;;;;;4.20;3.28;;;25.00;34.80;;;;;;5005491;28;20290;-47
2021/07/02 11:03:16;;;;;;;3.13;2.90;;;25.00;34.70;;;;;;4990094;28;20206;-44
2021/07/02 11:05:43;;;;;;;3.25;2.70;;;25.00;34.30;;;;;;4990291;28;20210;-49
2021/07/02 11:08:09;;;;;;;4.05;2.90;;;25.00;34.20;;;;;;4983224;28;20234;-46
2021/07/02 11:10:35;;;;;;;2.95;2.75;;;25.00;34.10;;;;;;4991684;28;20570;-50
2021/07/02 11:13:02;;;;;;;3.67;3.28;;;25.00;34.10;;;;;;4990857;28;20561;-43
2021/07/02 11:15:28;;;;;;;3.03;2.83;;;25.00;34.10;;;;;;4991488;28;20838;-42
2021/07/02 11:17:55;;;;;;;3.00;2.80;;;25.00;34.10;;;;;;4991663;28;20232;-42
2021/07/02 11:20:21;;;;;;;3.38;3.08;;;25.00;34.10;;;;;;4990621;28;20200;-48
2021/07/02 11:22:48;;;;;;;2.97;2.65;;;25.00;34.10;;;;;;4987774;28;20235;-45
2021/07/02 11:25:17;;;;;;;3.45;3.15;;;25.00;34.10;;;;;;4990057;28;20199;-42
2021/07/02 11:27:44;;;;;;;3.20;2.90;;;25.00;34.10;;;;;;4983564;28;20293;-47
2021/07/02 11:30:11;;;;;;;3.78;3.10;;;25.00;34.00;;;;;;4991672;28;20682;-42
2021/07/02 11:32:37;;;;;;;3.10;2.90;;;25.00;33.70;;;;;;4990705;28;20894;-52
2021/07/02 11:35:03;;;;;;;3.60;2.78;;;25.00;33.50;;;;;;4991516;28;20279;-45
2021/07/02 11:37:30;;;;;;;3.20;2.88;;;25.00;33.70;;;;;;4990739;28;20338;-43
2021/07/02 11:40:00;;;;;;;3.28;2.90;;;25.00;33.60;;;;;;4991488;28;20207;-46
2021/07/02 11:42:27;;;;;;;2.70;2.50;;;25.00;33.60;;;;;;4990259;28;20535;-47
2021/07/02 11:44:53;;;;;;;2.75;2.55;;;25.00;33.80;;;;;;4991073;28;20627;-47
2021/07/02 11:47:20;;;;;;;2.67;2.47;;;25.00;33.70;;;;;;4991044;28;20715;-43
2021/07/02 11:49:46;;;;;;;3.42;2.72;;;25.00;33.90;;;;;;4991150;28;20699;-43
2021/07/02 11:52:12;;;;;;;3.17;2.88;;;25.00;33.70;;;;;;4989296;28;20681;-42
2021/07/02 11:54:39;;;;;;;3.28;3.03;;;25.00;33.50;;;;;;4988838;28;20208;-42
2021/07/02 11:57:05;;;;;;;2.85;2.65;;;25.00;33.10;;;;;;4990995;28;20223;-44
2021/07/02 11:59:32;;;;;;;3.40;3.10;;;25.00;33.00;;;;;;4988066;28;20695;-47
2021/07/02 12:02:02;;;;;;;2.60;2.40;;;25.00;33.20;;;;;;4990468;28;20200;-43
2021/07/02 12:04:31;;;;;;;2.80;2.55;;;25.00;33.20;;;;;;4991073;28;20375;-47
2021/07/02 12:06:58;;;;;;;4.18;3.00;;;25.00;32.90;;;;;;4991895;28;20215;-47
2021/07/02 12:09:28;;;;;;;2.80;2.60;;;25.00;32.60;;;;;;4989222;28;20671;-51
2021/07/02 12:11:55;;;;;;;3.88;2.83;;;25.00;32.80;;;;;;4991887;28;20563;-47
2021/07/02 12:14:22;;;;;;;3.10;2.63;;;25.00;32.70;;;;;;5006785;28;20283;-46
2021/07/02 12:16:48;;;;;;;3.40;2.53;;;25.00;32.70;;;;;;4990918;28;20224;-48
2021/07/02 12:19:16;;;;;;;2.88;2.67;;;25.00;32.30;;;;;;4990560;28;20243;-43
2021/07/02 12:21:43;;;;;;;2.97;2.67;;;25.00;32.30;;;;;;4988455;28;20239;-49
2021/07/02 12:24:09;;;;;;;3.83;2.60;;;25.00;32.00;;;;;;4986620;28;20306;-53
2021/07/02 12:26:36;;;;;;;3.00;2.70;;;25.00;31.70;;;;;;4977440;28;20312;-44
2021/07/02 12:29:02;;;;;;;2.92;2.65;;;25.00;31.60;;;;;;4991531;28;20195;-43
2021/07/02 12:31:29;;;;;;;2.83;2.63;;;24.90;31.50;;;;;;4989265;28;20226;-49
2021/07/02 12:33:55;;;;;;;2.83;2.63;;;25.00;31.60;;;;;;4989817;28;20204;-50
2021/07/02 12:36:21;;;;;;;2.80;2.60;;;24.90;31.30;;;;;;4989772;28;20310;-49
2021/07/02 12:38:48;;;;;;;3.65;2.90;;;24.90;31.30;;;;;;4990286;28;20334;-44
2021/07/02 12:41:14;;;;;;;2.88;2.67;;;24.90;31.40;;;;;;4993379;28;20210;-44
2021/07/02 12:43:41;;;;;;;3.40;3.10;;;24.90;31.40;;;;;;4991868;28;20315;-48
2021/07/02 12:46:07;;;;;;;2.67;2.47;;;24.90;31.10;;;;;;4993256;28;20226;-49